createdAt,value
2023-09-15T00:00:52.230Z,1.00
2023-09-15T00:03:22.493Z,0.80
2023-09-15T00:05:52.840Z,1.10
2023-09-15T00:08:27.808Z,1.30
2023-09-15T00:10:58.384Z,0.70
2023-09-15T00:13:29.127Z,0.95
2023-09-15T00:15:59.961Z,0.82
2023-09-15T00:18:30.473Z,1.13
2023-09-15T00:21:01.385Z,1.17
2023-09-15T00:23:31.691Z,0.90
2023-09-15T00:26:05.869Z,0.80
2023-09-15T00:28:36.290Z,0.98
2023-09-15T00:31:06.843Z,0.93
2023-09-15T00:33:37.381Z,0.80
2023-09-15T00:36:09.573Z,1.10
2023-09-15T00:38:39.972Z,1.10
2023-09-15T00:41:10.240Z,1.00
2023-09-15T00:43:41.019Z,0.90
2023-09-15T00:46:13.452Z,0.80
2023-09-15T00:48:44.083Z,0.82
2023-09-15T00:51:14.731Z,1.00
2023-09-15T00:53:45.279Z,0.98
2023-09-15T00:56:15.905Z,0.90
2023-09-15T00:58:46.720Z,0.98
2023-09-15T01:01:19.414Z,1.00
2023-09-15T01:03:50.582Z,0.93
2023-09-15T01:06:22.338Z,0.85
2023-09-15T01:08:52.831Z,0.90
2023-09-15T01:11:24.142Z,1.15
2023-09-15T01:13:54.443Z,0.70
2023-09-15T01:17:02.374Z,0.98
2023-09-15T01:20:09.114Z,0.80
2023-09-15T01:23:11.294Z,0.90
2023-09-15T01:25:59.759Z,0.80
2023-09-15T01:28:50.275Z,0.75
2023-09-15T01:31:22.772Z,0.68
2023-09-15T01:33:53.644Z,0.90
2023-09-15T01:36:23.935Z,0.90
2023-09-15T01:38:54.177Z,0.75
2023-09-15T01:41:24.668Z,0.85
2023-09-15T01:43:56.148Z,1.20
2023-09-15T01:46:29.510Z,0.90
2023-09-15T01:49:02.378Z,0.85
2023-09-15T01:51:34.057Z,0.77
2023-09-15T01:54:04.822Z,0.80
2023-09-15T01:56:35.066Z,0.88
2023-09-15T01:59:05.384Z,1.00
2023-09-15T02:01:35.744Z,0.70
2023-09-15T02:04:06.763Z,0.70
2023-09-15T02:06:37.144Z,0.90
2023-09-15T02:09:08.589Z,0.90
2023-09-15T02:11:38.896Z,0.80
2023-09-15T02:14:09.710Z,0.95
2023-09-15T02:16:40.048Z,0.90
2023-09-15T02:19:12.019Z,0.90
2023-09-15T02:21:42.350Z,1.00
2023-09-15T02:24:12.887Z,0.85
2023-09-15T02:26:43.766Z,0.93
2023-09-15T02:29:14.569Z,0.88
2023-09-15T02:31:45.920Z,1.27
2023-09-15T02:34:16.585Z,1.00
2023-09-15T02:36:47.241Z,1.08
2023-09-15T02:39:17.618Z,1.02
2023-09-15T02:41:47.900Z,0.93
2023-09-15T02:44:18.306Z,0.88
2023-09-15T02:46:48.604Z,0.85
2023-09-15T02:49:19.075Z,1.40
2023-09-15T02:51:49.982Z,0.90
2023-09-15T02:54:20.349Z,1.27
2023-09-15T02:56:50.650Z,1.15
2023-09-15T02:59:20.913Z,1.20
2023-09-15T03:01:53.642Z,1.20
2023-09-15T03:04:23.955Z,1.27
2023-09-15T03:06:54.251Z,1.25
2023-09-15T03:09:24.593Z,1.30
2023-09-15T03:11:54.929Z,1.20
2023-09-15T03:14:25.266Z,1.30
2023-09-15T03:16:55.795Z,1.10
2023-09-15T03:19:27.053Z,1.08
2023-09-15T03:21:57.378Z,1.40
2023-09-15T03:24:27.629Z,1.40
2023-09-15T03:26:57.971Z,1.30
2023-09-15T03:29:28.272Z,1.42
2023-09-15T03:31:58.687Z,1.60
2023-09-15T03:34:29.042Z,1.10
2023-09-15T03:36:59.406Z,1.60
2023-09-15T03:39:29.705Z,1.35
2023-09-15T03:41:59.958Z,1.35
2023-09-15T03:44:30.218Z,1.85
2023-09-15T03:47:00.574Z,1.27
2023-09-15T03:49:31.057Z,1.40
2023-09-15T03:52:02.193Z,1.10
2023-09-15T03:54:32.697Z,1.52
2023-09-15T03:57:03.068Z,1.40
2023-09-15T03:59:33.464Z,1.70
2023-09-15T04:02:04.118Z,1.30
2023-09-15T04:04:34.490Z,1.60
2023-09-15T04:07:04.852Z,1.58
2023-09-15T04:09:36.745Z,1.80
2023-09-15T04:12:07.459Z,2.25
2023-09-15T04:14:38.410Z,1.80
2023-09-15T04:17:08.806Z,2.20
2023-09-15T04:19:39.421Z,2.22
2023-09-15T04:22:09.675Z,1.70
2023-09-15T04:24:40.149Z,1.98
2023-09-15T04:27:10.478Z,1.50
2023-09-15T04:30:03.491Z,1.60
2023-09-15T04:32:33.968Z,1.45
2023-09-15T04:35:04.368Z,1.60
2023-09-15T04:37:34.589Z,1.70
2023-09-15T04:40:07.135Z,1.58
2023-09-15T04:42:37.681Z,1.88
2023-09-15T04:45:08.762Z,1.63
2023-09-15T04:47:40.442Z,1.60
2023-09-15T04:50:11.687Z,1.73
2023-09-15T04:52:42.540Z,1.63
2023-09-15T04:55:13.064Z,1.98
2023-09-15T04:57:43.699Z,1.70
2023-09-15T05:00:26.294Z,1.60
2023-09-15T05:03:00.285Z,1.75
2023-09-15T05:05:32.514Z,1.60
2023-09-15T05:08:02.831Z,1.52
2023-09-15T05:10:33.363Z,1.48
2023-09-15T05:13:07.971Z,1.85
2023-09-15T05:15:38.351Z,1.50
2023-09-15T05:18:08.823Z,1.70
2023-09-15T05:20:39.244Z,1.60
2023-09-15T05:23:09.518Z,1.50
2023-09-15T05:25:39.843Z,1.48
2023-09-15T05:28:10.237Z,1.35
2023-09-15T05:30:41.296Z,1.13
2023-09-15T05:33:12.380Z,1.75
2023-09-15T05:35:42.862Z,1.30
2023-09-15T05:38:13.351Z,1.20
2023-09-15T05:40:43.854Z,1.40
2023-09-15T05:43:14.254Z,1.50
2023-09-15T05:45:44.855Z,1.50
2023-09-15T05:48:21.142Z,1.20
2023-09-15T05:50:52.675Z,1.20
2023-09-15T05:53:24.148Z,1.50
2023-09-15T05:55:55.154Z,1.48
2023-09-15T05:58:25.994Z,1.10
2023-09-15T06:00:59.016Z,1.08
2023-09-15T06:03:29.687Z,1.10
2023-09-15T06:05:59.990Z,1.23
2023-09-15T06:08:32.951Z,1.38
2023-09-15T06:11:06.377Z,1.15
2023-09-15T06:13:39.775Z,1.05
2023-09-15T06:16:10.708Z,1.23
2023-09-15T06:18:41.031Z,1.20
2023-09-15T06:21:11.412Z,1.10
2023-09-15T06:23:41.767Z,1.20
2023-09-15T06:26:12.321Z,1.40
2023-09-15T06:28:42.696Z,1.05
2023-09-15T06:31:13.702Z,1.05
2023-09-15T06:33:44.080Z,1.10
2023-09-15T06:36:14.826Z,1.20
2023-09-15T06:38:45.801Z,1.17
2023-09-15T06:41:16.298Z,0.82
2023-09-15T06:43:47.022Z,1.10
2023-09-15T06:46:21.935Z,1.00
2023-09-15T06:48:53.016Z,1.33
2023-09-15T06:51:23.898Z,1.13
2023-09-15T06:53:55.064Z,1.27
2023-09-15T06:56:27.738Z,1.20
2023-09-15T06:58:58.249Z,1.08
2023-09-15T07:01:28.699Z,0.95
2023-09-15T07:03:59.057Z,1.17
2023-09-15T07:06:29.997Z,1.35
2023-09-15T07:09:00.213Z,1.00
2023-09-15T07:11:30.484Z,1.33
2023-09-15T07:14:00.702Z,1.30
2023-09-15T07:16:31.283Z,1.20
2023-09-15T07:19:03.294Z,1.17
2023-09-15T07:21:34.065Z,1.15
2023-09-15T07:24:04.791Z,1.13
2023-09-15T07:26:35.469Z,0.80
2023-09-15T07:29:06.511Z,1.20
2023-09-15T07:31:40.212Z,1.20
2023-09-15T07:34:10.718Z,1.40
2023-09-15T07:36:40.984Z,1.25
2023-09-15T07:39:11.539Z,1.45
2023-09-15T07:41:41.845Z,1.25
2023-09-15T07:44:12.522Z,1.17
2023-09-15T07:46:43.434Z,1.25
2023-09-15T07:49:15.188Z,1.42
2023-09-15T07:51:46.421Z,1.35
2023-09-15T07:54:16.968Z,1.25
2023-09-15T07:56:47.263Z,1.20
2023-09-15T07:59:18.029Z,1.40
2023-09-15T08:01:48.328Z,1.48
2023-09-15T08:04:18.789Z,1.45
2023-09-15T08:06:49.846Z,1.60
2023-09-15T08:09:20.499Z,1.65
2023-09-15T08:11:50.794Z,1.60
2023-09-15T08:14:21.577Z,1.65
2023-09-15T08:16:52.200Z,1.33
2023-09-15T08:19:26.170Z,1.67
2023-09-15T08:21:56.599Z,1.50
2023-09-15T08:24:27.360Z,1.33
2023-09-15T08:26:57.691Z,1.50
2023-09-15T08:29:28.160Z,1.45
2023-09-15T08:31:58.451Z,1.17
2023-09-15T08:34:29.141Z,1.70
2023-09-15T08:36:59.498Z,1.20
2023-09-15T08:39:30.020Z,1.20
2023-09-15T08:42:07.773Z,1.30
2023-09-15T08:44:39.373Z,2.13
2023-09-15T08:47:10.239Z,2.90
2023-09-15T08:49:40.795Z,2.72
2023-09-15T08:52:11.941Z,2.40
2023-09-15T08:54:42.507Z,2.00
2023-09-15T08:57:13.109Z,2.55
2023-09-15T08:59:44.280Z,2.28
2023-09-15T09:02:17.475Z,2.13
2023-09-15T09:04:48.080Z,2.40
2023-09-15T09:07:19.365Z,2.28
2023-09-15T09:09:51.289Z,2.70
2023-09-15T09:12:21.650Z,2.40
2023-09-15T09:14:57.737Z,2.40
2023-09-15T09:17:28.481Z,2.38
2023-09-15T09:19:59.703Z,2.15
2023-09-15T09:22:30.629Z,2.53
2023-09-15T09:25:02.423Z,2.05
2023-09-15T09:27:37.306Z,2.50
2023-09-15T09:30:08.769Z,2.63
2023-09-15T09:32:42.172Z,2.00
2023-09-15T09:35:12.441Z,2.42
2023-09-15T09:37:42.780Z,2.47
2023-09-15T09:40:14.527Z,2.40
2023-09-15T09:42:48.579Z,2.40
2023-09-15T09:45:20.044Z,2.22
2023-09-15T09:47:53.060Z,2.17
2023-09-15T09:50:24.999Z,1.80
2023-09-15T09:52:56.388Z,1.85
2023-09-15T09:55:30.456Z,2.13
2023-09-15T09:58:10.533Z,2.13
2023-09-15T10:00:42.202Z,1.77
2023-09-15T10:03:12.652Z,1.98
2023-09-15T10:05:43.313Z,2.25
2023-09-15T10:08:15.045Z,2.00
2023-09-15T10:10:53.985Z,2.15
2023-09-15T10:13:25.584Z,2.30
2023-09-15T10:15:58.006Z,2.17
2023-09-15T10:18:28.993Z,2.05
2023-09-15T10:21:00.417Z,2.05
2023-09-15T10:23:33.024Z,2.00
2023-09-15T10:26:09.971Z,2.55
2023-09-15T10:28:42.614Z,2.20
2023-09-15T10:31:14.316Z,2.00
2023-09-15T10:33:46.166Z,2.10
2023-09-15T10:36:18.586Z,2.38
2023-09-15T10:38:50.922Z,2.00
2023-09-15T10:41:30.038Z,1.80
2023-09-15T10:44:00.809Z,1.98
2023-09-15T10:46:39.542Z,1.90
2023-09-15T10:49:21.242Z,2.20
2023-09-15T10:51:56.880Z,2.00
2023-09-15T10:54:41.125Z,2.05
2023-09-15T10:57:12.739Z,1.98
2023-09-15T10:59:43.145Z,2.28
2023-09-15T11:02:13.810Z,1.80
2023-09-15T11:04:44.770Z,1.90
2023-09-15T11:07:17.038Z,1.88
2023-09-15T11:09:47.781Z,2.00
2023-09-15T11:12:18.586Z,1.88
2023-09-15T11:14:48.929Z,1.95
2023-09-15T11:17:22.474Z,2.17
2023-09-15T11:19:53.145Z,1.85
2023-09-15T11:22:23.976Z,1.83
2023-09-15T11:25:14.483Z,1.63
2023-09-15T11:27:51.190Z,1.77
2023-09-15T11:30:22.053Z,1.92
2023-09-15T11:32:52.617Z,1.60
2023-09-15T11:35:23.520Z,2.00
2023-09-15T11:37:56.355Z,1.63
2023-09-15T11:40:27.328Z,2.20
2023-09-15T11:43:05.142Z,2.17
2023-09-15T11:45:36.025Z,1.80
2023-09-15T11:48:08.099Z,1.90
2023-09-15T11:50:39.080Z,1.73
2023-09-15T11:53:09.592Z,1.95
2023-09-15T11:55:40.269Z,1.70
2023-09-15T11:58:10.815Z,2.25
2023-09-15T12:00:41.165Z,1.90
2023-09-15T12:03:11.808Z,1.95
2023-09-15T12:05:43.111Z,1.52
2023-09-15T12:08:16.280Z,1.80
2023-09-15T12:10:54.680Z,1.77
2023-09-15T12:13:41.325Z,1.90
2023-09-15T12:16:22.501Z,1.80
2023-09-15T12:18:54.314Z,1.67
2023-09-15T12:21:29.235Z,1.80
2023-09-15T12:24:14.860Z,1.80
2023-09-15T12:26:46.101Z,2.00
2023-09-15T12:29:18.037Z,1.70
2023-09-15T12:31:48.452Z,1.80
2023-09-15T12:34:25.243Z,2.10
2023-09-15T12:36:56.166Z,1.65
2023-09-15T12:39:27.325Z,1.90
2023-09-15T12:42:15.092Z,1.75
2023-09-15T12:44:46.347Z,1.80
2023-09-15T12:47:17.118Z,1.50
2023-09-15T12:49:47.485Z,1.58
2023-09-15T12:52:17.938Z,1.55
2023-09-15T12:54:48.297Z,1.40
2023-09-15T12:57:18.606Z,1.77
2023-09-15T12:59:48.945Z,1.73
2023-09-15T13:02:20.772Z,1.50
2023-09-15T13:04:51.529Z,1.33
2023-09-15T13:07:22.143Z,1.60
2023-09-15T13:09:52.606Z,1.85
2023-09-15T13:12:22.973Z,1.70
2023-09-15T13:14:53.690Z,1.52
2023-09-15T13:17:24.092Z,1.60
2023-09-15T13:19:54.567Z,1.30
2023-09-15T13:22:25.579Z,1.52
2023-09-15T13:24:58.793Z,1.50
2023-09-15T13:27:31.250Z,1.65
2023-09-15T13:30:02.625Z,1.27
2023-09-15T13:32:33.023Z,1.30
2023-09-15T13:35:04.092Z,1.35
2023-09-15T13:37:34.861Z,1.27
2023-09-15T13:40:06.466Z,1.40
2023-09-15T13:42:38.970Z,1.45
2023-09-15T13:45:10.486Z,1.30
2023-09-15T13:47:40.953Z,1.40
2023-09-15T13:50:11.440Z,1.23
2023-09-15T13:52:42.906Z,1.13
2023-09-15T13:55:13.445Z,1.30
2023-09-15T13:57:43.827Z,1.02
2023-09-15T14:00:14.538Z,1.17
2023-09-15T14:02:44.890Z,1.10
2023-09-15T14:05:15.297Z,1.10
2023-09-15T14:07:45.616Z,1.23
2023-09-15T14:10:15.848Z,1.52
2023-09-15T14:12:46.384Z,1.20
2023-09-15T14:15:16.875Z,1.42
2023-09-15T14:17:47.501Z,1.23
2023-09-15T14:20:17.935Z,1.10
2023-09-15T14:22:48.286Z,1.30
2023-09-15T14:25:19.388Z,1.35
2023-09-15T14:27:49.712Z,1.15
2023-09-15T14:30:20.280Z,1.02
2023-09-15T14:32:50.675Z,1.10
2023-09-15T14:35:22.596Z,1.10
2023-09-15T14:37:52.968Z,1.13
2023-09-15T14:40:23.276Z,1.13
2023-09-15T14:42:53.592Z,1.00
2023-09-15T14:45:27.288Z,1.15
2023-09-15T14:48:05.819Z,1.00
2023-09-15T14:50:37.233Z,0.90
2023-09-15T14:53:07.651Z,1.10
2023-09-15T14:55:38.104Z,0.60
2023-09-15T14:58:08.529Z,0.75
2023-09-15T15:00:39.364Z,1.00
2023-09-15T15:03:09.864Z,0.75
2023-09-15T15:05:40.336Z,0.90
2023-09-15T15:08:11.145Z,0.70
2023-09-15T15:10:41.511Z,1.00
2023-09-15T15:13:12.421Z,0.98
2023-09-15T15:15:49.666Z,0.63
2023-09-15T15:18:22.684Z,0.60
2023-09-15T15:20:55.224Z,0.60
2023-09-15T15:23:25.521Z,1.00
2023-09-15T15:25:56.605Z,0.70
2023-09-15T15:28:26.907Z,0.90
2023-09-15T15:30:57.968Z,0.85
2023-09-15T15:33:28.398Z,0.80
2023-09-15T15:36:09.615Z,0.63
2023-09-15T15:38:40.432Z,0.85
2023-09-15T15:41:12.770Z,0.80
2023-09-15T15:43:43.489Z,0.77
2023-09-15T15:46:13.745Z,0.80
2023-09-15T15:48:44.053Z,0.80
2023-09-15T15:51:14.390Z,0.80
2023-09-15T15:53:44.765Z,0.70
2023-09-15T15:56:15.696Z,0.73
2023-09-15T15:58:46.114Z,0.60
2023-09-15T16:01:16.644Z,0.70
2023-09-15T16:03:47.160Z,0.70
2023-09-15T16:06:17.625Z,0.70
2023-09-15T16:08:48.109Z,0.88
2023-09-15T16:11:18.849Z,0.80
2023-09-15T16:13:49.310Z,0.80
2023-09-15T16:16:19.681Z,1.02
2023-09-15T16:18:50.218Z,0.90
2023-09-15T16:21:20.861Z,0.95
2023-09-15T16:23:51.174Z,0.90
2023-09-15T16:26:22.244Z,0.90
2023-09-15T16:28:52.701Z,0.70
2023-09-15T16:31:23.066Z,0.93
2023-09-15T16:33:53.658Z,1.00
2023-09-15T16:36:24.214Z,0.85
2023-09-15T16:38:59.067Z,0.70
2023-09-15T16:41:30.798Z,0.73
2023-09-15T16:44:01.120Z,0.80
2023-09-15T16:46:31.576Z,0.95
2023-09-15T16:49:01.896Z,0.80
2023-09-15T16:51:32.255Z,1.02
2023-09-15T16:54:02.610Z,0.80
2023-09-15T16:56:32.866Z,0.70
2023-09-15T16:59:03.118Z,0.90
2023-09-15T17:01:33.430Z,0.90
2023-09-15T17:04:03.839Z,1.10
2023-09-15T17:06:34.443Z,0.88
2023-09-15T17:09:04.931Z,0.75
2023-09-15T17:11:37.486Z,0.90
2023-09-15T17:14:07.754Z,1.00
2023-09-15T17:16:38.132Z,1.08
2023-09-15T17:19:09.531Z,0.88
2023-09-15T17:21:39.888Z,0.75
2023-09-15T17:24:11.172Z,1.00
2023-09-15T17:26:49.081Z,0.88
2023-09-15T17:29:19.821Z,0.90
2023-09-15T17:31:50.201Z,0.80
2023-09-15T17:34:20.498Z,0.90
2023-09-15T17:36:51.151Z,0.80
2023-09-15T17:39:21.660Z,0.80
2023-09-15T17:41:52.303Z,1.10
2023-09-15T17:44:22.685Z,0.98
2023-09-15T17:46:53.520Z,0.82
2023-09-15T17:49:23.900Z,1.00
2023-09-15T17:51:55.175Z,0.88
2023-09-15T17:54:27.474Z,1.10
2023-09-15T17:56:57.785Z,0.90
2023-09-15T17:59:28.120Z,0.90
2023-09-15T18:01:58.720Z,0.88
2023-09-15T18:04:29.014Z,0.98
2023-09-15T18:06:59.303Z,0.80
2023-09-15T18:09:29.618Z,0.90
2023-09-15T18:12:00.103Z,1.10
2023-09-15T18:14:30.443Z,0.98
2023-09-15T18:17:00.809Z,0.93
2023-09-15T18:19:31.088Z,0.70
2023-09-15T18:22:01.460Z,1.00
2023-09-15T18:24:32.964Z,0.93
2023-09-15T18:27:03.326Z,0.98
2023-09-15T18:29:33.706Z,1.10
2023-09-15T18:32:04.986Z,0.90
2023-09-15T18:34:35.435Z,1.08
2023-09-15T18:37:06.841Z,1.00
2023-09-15T18:39:37.227Z,1.10
2023-09-15T18:42:07.713Z,0.90
2023-09-15T18:44:38.511Z,0.95
2023-09-15T18:47:09.698Z,0.90
2023-09-15T18:49:43.316Z,0.90
2023-09-15T18:52:14.336Z,0.90
2023-09-15T18:54:44.739Z,1.13
2023-09-15T18:57:14.996Z,1.02
2023-09-15T18:59:45.271Z,0.82
2023-09-15T19:02:15.643Z,0.98
2023-09-15T19:04:46.164Z,1.10
2023-09-15T19:07:16.447Z,1.10
2023-09-15T19:09:46.705Z,1.00
2023-09-15T19:12:17.084Z,1.13
2023-09-15T19:14:47.410Z,1.00
2023-09-15T19:17:18.669Z,1.10
2023-09-15T19:19:48.951Z,1.30
2023-09-15T19:22:19.193Z,1.20
2023-09-15T19:24:50.461Z,0.90
2023-09-15T19:27:21.112Z,1.02
2023-09-15T19:29:51.381Z,1.13
2023-09-15T19:32:21.741Z,1.10
2023-09-15T19:34:52.725Z,0.98
2023-09-15T19:37:25.190Z,0.80
2023-09-15T19:39:55.886Z,1.20
2023-09-15T19:42:27.070Z,1.27
2023-09-15T19:44:57.542Z,1.10
2023-09-15T19:47:28.043Z,1.05
2023-09-15T19:49:58.331Z,1.20
2023-09-15T19:52:32.271Z,0.80
2023-09-15T19:55:02.880Z,0.90
2023-09-15T19:57:59.360Z,1.02
2023-09-15T20:00:29.846Z,0.93
2023-09-15T20:03:06.606Z,0.90
2023-09-15T20:05:37.031Z,0.93
2023-09-15T20:08:07.544Z,1.23
2023-09-15T20:10:37.971Z,1.75
2023-09-15T20:13:09.892Z,1.30
2023-09-15T20:15:42.337Z,1.20
2023-09-15T20:18:13.433Z,1.52
2023-09-15T20:20:47.000Z,1.30
2023-09-15T20:23:18.285Z,1.40
2023-09-15T20:25:49.303Z,1.20
2023-09-15T20:28:20.767Z,1.30
2023-09-15T20:30:51.240Z,1.00
2023-09-15T20:33:21.960Z,1.42
2023-09-15T20:35:52.495Z,0.90
2023-09-15T20:38:23.045Z,1.40
2023-09-15T20:41:00.980Z,1.30
2023-09-15T20:43:31.428Z,0.90
2023-09-15T20:46:01.968Z,1.02
2023-09-15T20:48:35.548Z,0.93
2023-09-15T20:51:05.835Z,0.90
2023-09-15T20:53:36.781Z,0.93
2023-09-15T20:56:06.997Z,1.30
2023-09-15T20:58:38.952Z,1.10
2023-09-15T21:01:09.723Z,0.80
2023-09-15T21:03:40.206Z,0.93
2023-09-15T21:06:10.615Z,0.77
2023-09-15T21:08:41.085Z,0.80
2023-09-15T21:11:11.690Z,1.10
2023-09-15T21:13:44.356Z,0.93
2023-09-15T21:16:16.733Z,0.95
2023-09-15T21:18:48.754Z,0.98
2023-09-15T21:21:19.248Z,0.80
2023-09-15T21:23:50.908Z,1.02
2023-09-15T21:26:21.242Z,0.77
2023-09-15T21:28:51.663Z,1.27
2023-09-15T21:31:22.069Z,1.33
2023-09-15T21:33:52.824Z,1.30
2023-09-15T21:36:23.221Z,1.00
2023-09-15T21:38:53.526Z,0.98
2023-09-15T21:41:25.646Z,0.85
2023-09-15T21:43:56.302Z,1.13
2023-09-15T21:46:26.636Z,0.93
2023-09-15T21:48:57.191Z,1.27
2023-09-15T21:51:27.516Z,1.13
2023-09-15T21:53:57.836Z,1.00
2023-09-15T21:56:29.300Z,1.00
2023-09-15T21:58:59.801Z,0.82
2023-09-15T22:01:30.613Z,1.10
2023-09-15T22:04:04.086Z,0.82
2023-09-15T22:06:34.517Z,0.82
2023-09-15T22:09:05.259Z,0.98
2023-09-15T22:11:35.884Z,1.10
2023-09-15T22:14:06.746Z,1.05
2023-09-15T22:16:37.233Z,0.93
2023-09-15T22:19:09.245Z,1.00
2023-09-15T22:21:42.964Z,1.25
2023-09-15T22:24:13.378Z,0.70
2023-09-15T22:26:44.598Z,0.93
2023-09-15T22:29:14.919Z,0.95
2023-09-15T22:31:45.336Z,0.95
2023-09-15T22:34:15.976Z,1.02
2023-09-15T22:36:46.325Z,1.00
2023-09-15T22:39:17.366Z,0.93
2023-09-15T22:41:47.574Z,0.88
2023-09-15T22:44:17.853Z,0.90
2023-09-15T22:46:50.137Z,1.30
2023-09-15T22:49:22.518Z,0.93
2023-09-15T22:51:53.421Z,1.02
2023-09-15T22:54:23.859Z,0.85
2023-09-15T22:56:54.262Z,0.88
2023-09-15T22:59:28.394Z,0.95
2023-09-15T23:01:59.087Z,0.85
2023-09-15T23:04:29.404Z,1.15
2023-09-15T23:06:59.718Z,0.98
2023-09-15T23:09:30.111Z,0.90
2023-09-15T23:12:02.356Z,1.10
2023-09-15T23:14:32.943Z,0.98
2023-09-15T23:17:03.235Z,0.88
2023-09-15T23:19:33.599Z,1.08
2023-09-15T23:22:04.595Z,0.70
2023-09-15T23:24:35.361Z,0.90
2023-09-15T23:27:06.153Z,1.00
2023-09-15T23:29:36.625Z,1.00
2023-09-15T23:32:08.506Z,0.75
2023-09-15T23:34:38.892Z,1.08
2023-09-15T23:37:09.862Z,0.80
2023-09-15T23:39:41.227Z,0.80
2023-09-15T23:42:11.555Z,1.10
2023-09-15T23:44:42.976Z,1.17
2023-09-15T23:47:14.055Z,0.85
2023-09-15T23:49:44.394Z,1.15
2023-09-15T23:52:15.506Z,1.25
2023-09-15T23:54:45.934Z,1.10
2023-09-15T23:57:16.372Z,0.70
2023-09-15T23:59:46.738Z,1.10
